Time;durP1;ratioP1;P1;durP2;ratioP2;P2;SDS_P1;SDS_P2;PMS_P1;PMS_P2;Temp;Humidity;BMP_temperature;BMP_pressure;BME280_temperature;BME280_humidity;BME280_pressure;Samples;Min_cycle;Max_cycle;Signal;HPM_P1;HPM_P2
2021/10/16 00:00:20;;;;;;;5.15;0.43;;;;;;;7.53;54.65;102027.63;5016209;28;20053;-65
2021/10/16 00:02:47;;;;;;;5.07;0.68;;;;;;;7.43;55.02;102041.59;5009615;28;20116;-64
2021/10/16 00:05:13;;;;;;;5.35;0.25;;;;;;;7.65;54.43;102037.97;5011662;28;20641;-65
2021/10/16 00:07:38;;;;;;;4.68;0.77;;;;;;;7.69;54.09;102037.06;5009979;28;20199;-63
2021/10/16 00:10:04;;;;;;;1.92;0.25;;;;;;;7.77;54.11;102046.53;5012510;28;20483;-63
2021/10/16 00:12:30;;;;;;;4.18;0.30;;;;;;;7.63;54.76;102050.13;5012520;28;20053;-65
2021/10/16 00:14:56;;;;;;;2.72;0.95;;;;;;;7.79;54.83;102040.44;5011942;28;20045;-65
2021/10/16 00:17:21;;;;;;;3.00;0.10;;;;;;;7.87;54.65;102038.63;5010755;28;20101;-65
2021/10/16 00:19:47;;;;;;;3.30;0.20;;;;;;;7.62;55.14;102039.72;5011658;28;20034;-65
2021/10/16 00:22:13;;;;;;;3.95;0.20;;;;;;;8.10;54.12;102038.38;5009219;28;20048;-65
2021/10/16 00:24:38;;;;;;;5.88;0.30;;;;;;;7.94;54.50;102042.03;5010759;28;20045;-64
2021/10/16 00:27:04;;;;;;;2.30;0.25;;;;;;;8.21;53.83;102046.06;5008860;28;20042;-64
2021/10/16 00:29:30;;;;;;;5.63;0.45;;;;;;;8.07;54.38;102041.03;5009116;28;20406;-63
2021/10/16 00:31:56;;;;;;;6.07;0.10;;;;;;;8.09;54.43;102039.28;5012261;28;20116;-64
2021/10/16 00:34:22;;;;;;;4.22;0.90;;;;;;;8.14;54.25;102040.06;5008759;28;20167;-66
2021/10/16 00:36:47;;;;;;;8.13;0.20;;;;;;;8.08;53.99;102042.75;5009290;28;20291;-63
2021/10/16 00:39:13;;;;;;;3.83;0.82;;;;;;;8.21;54.42;102034.81;5012889;28;20033;-63
2021/10/16 00:41:38;;;;;;;3.38;0.10;;;;;;;8.28;53.88;102039.06;5007850;28;20072;-63
2021/10/16 00:44:30;;;;;;;2.42;0.73;;;;;;;8.46;53.70;102036.22;5016979;28;20040;-63
2021/10/16 00:46:59;;;;;;;;;;;;;;;8.30;53.67;102032.09;5006005;28;20104;-64
2021/10/16 00:49:26;;;;;;;4.47;0.22;;;;;;;8.24;53.81;102032.16;5008744;28;19921;-64
2021/10/16 00:51:52;;;;;;;1.98;0.15;;;;;;;8.42;53.74;102026.72;5026981;28;20564;-64
2021/10/16 00:54:20;;;;;;;2.67;0.10;;;;;;;8.27;54.04;102021.69;5005725;28;20041;-63
2021/10/16 00:56:48;;;;;;;2.17;0.22;;;;;;;8.23;54.27;102020.03;5012643;28;20068;-65
2021/10/16 00:59:13;;;;;;;2.72;0.20;;;;;;;8.33;53.79;102024.22;5009501;28;20041;-63
2021/10/16 01:01:40;;;;;;;1.77;0.22;;;;;;;8.28;54.15;102028.63;5012798;28;20153;-64
2021/10/16 01:04:06;;;;;;;2.30;0.25;;;;;;;8.51;54.23;102029.19;5007581;28;20044;-63
2021/10/16 01:06:37;;;;;;;1.92;0.10;;;;;;;8.68;53.63;102030.75;5012029;28;20090;-63
2021/10/16 01:09:08;;;;;;;1.50;0.15;;;;;;;8.51;53.65;102026.59;4973011;28;20049;-64
2021/10/16 01:11:35;;;;;;;1.60;0.00;;;;;;;8.68;52.99;102025.53;5009427;28;20780;-64
2021/10/16 01:14:06;;;;;;;4.70;0.20;;;;;;;8.78;53.20;102034.97;4995530;28;20388;-65
2021/10/16 01:16:33;;;;;;;4.43;0.27;;;;;;;8.78;52.72;102029.75;5017014;28;20034;-65
2021/10/16 01:18:59;;;;;;;8.07;0.40;;;;;;;8.92;52.77;102035.63;5018591;28;20323;-63
2021/10/16 01:21:25;;;;;;;3.05;0.30;;;;;;;8.89;52.40;102046.09;5010836;28;20080;-62
2021/10/16 01:23:51;;;;;;;3.88;0.17;;;;;;;8.80;52.41;102048.84;5018986;28;20180;-64
2021/10/16 01:26:17;;;;;;;4.38;0.38;;;;;;;8.83;52.30;102046.22;5011998;28;20086;-62
2021/10/16 01:28:43;;;;;;;7.45;0.82;;;;;;;8.79;52.54;102044.50;5012546;28;20052;-64
2021/10/16 01:31:09;;;;;;;7.15;0.30;;;;;;;8.77;52.41;102043.69;5022946;28;20497;-63
2021/10/16 01:33:34;;;;;;;2.78;0.25;;;;;;;8.78;52.13;102045.38;5009433;28;20056;-64
2021/10/16 01:36:04;;;;;;;4.55;0.30;;;;;;;8.49;52.47;102037.91;5011071;28;20494;-64
2021/10/16 01:38:31;;;;;;;6.72;0.30;;;;;;;8.44;52.30;102040.59;4990242;28;20107;-63
2021/10/16 01:41:00;;;;;;;4.55;0.38;;;;;;;8.49;52.27;102043.97;5017210;28;20486;-64
2021/10/16 01:43:28;;;;;;;3.33;0.20;;;;;;;8.43;52.52;102044.09;5008491;28;20058;-65
2021/10/16 01:45:55;;;;;;;2.67;0.17;;;;;;;8.30;52.88;102053.78;5009384;28;20030;-63
2021/10/16 01:48:24;;;;;;;5.45;0.28;;;;;;;8.46;52.08;102049.25;5006214;28;20037;-63
2021/10/16 01:50:51;;;;;;;3.15;0.13;;;;;;;8.50;52.54;102043.13;5008984;28;20037;-63
2021/10/16 01:53:23;;;;;;;0.90;0.20;;;;;;;8.37;52.46;102041.56;5023820;28;20034;-63
2021/10/16 01:55:57;;;;;;;1.48;0.30;;;;;;;8.04;53.59;102038.44;5016342;28;20409;-63
2021/10/16 01:58:25;;;;;;;1.77;0.20;;;;;;;8.13;53.66;102033.13;5010799;28;20481;-68
2021/10/16 02:01:07;;;;;;;2.05;0.25;;;;;;;8.01;54.51;102037.63;5012895;28;20029;-63
2021/10/16 02:03:33;;;;;;;4.47;0.73;;;;;;;8.19;53.54;102028.75;5009085;28;20069;-63
2021/10/16 02:06:04;;;;;;;2.47;0.20;;;;;;;8.27;53.27;102026.91;5012210;28;20087;-64
2021/10/16 02:08:33;;;;;;;2.28;0.17;;;;;;;8.24;53.87;102022.59;5016095;28;20529;-64
2021/10/16 02:10:58;;;;;;;4.78;0.20;;;;;;;8.26;53.90;102025.19;5008859;28;20034;-64
2021/10/16 02:13:31;;;;;;;10.30;0.30;;;;;;;8.12;54.20;102023.59;5010314;28;20081;-64
2021/10/16 02:16:03;;;;;;;1.52;0.10;;;;;;;8.23;53.89;102025.22;5011171;28;20382;-66
2021/10/16 02:18:40;;;;;;;3.63;0.20;;;;;;;8.40;53.64;102023.25;5001915;28;20267;-65
2021/10/16 02:21:06;;;;;;;1.13;0.10;;;;;;;8.47;53.15;102017.13;5012447;28;20362;-64
2021/10/16 02:23:33;;;;;;;5.05;0.30;;;;;;;8.31;53.29;102021.63;5003469;28;20068;-63
2021/10/16 02:25:59;;;;;;;3.25;0.63;;;;;;;8.38;53.48;102024.16;5022409;28;20068;-63
2021/10/16 02:28:28;;;;;;;5.15;1.10;;;;;;;8.35;53.39;102018.09;5015565;28;20406;-63
2021/10/16 02:31:11;;;;;;;3.78;0.30;;;;;;;8.36;53.64;102019.00;5027628;28;20037;-62
2021/10/16 02:33:37;;;;;;;4.20;0.30;;;;;;;8.18;54.01;102017.44;5013351;28;21244;-63
2021/10/16 02:36:03;;;;;;;1.25;0.13;;;;;;;8.33;53.59;102021.63;5000688;28;20030;-63
2021/10/16 02:38:28;;;;;;;1.25;0.40;;;;;;;8.31;53.53;102023.38;5018680;28;20038;-64
2021/10/16 02:40:54;;;;;;;3.92;0.25;;;;;;;8.02;53.84;102014.16;5013365;28;20052;-63
2021/10/16 02:43:19;;;;;;;2.53;0.10;;;;;;;8.02;54.00;102024.56;4996652;28;20037;-63
2021/10/16 02:45:45;;;;;;;1.15;0.17;;;;;;;8.06;53.90;102026.28;5017017;28;20030;-64
2021/10/16 02:48:11;;;;;;;9.68;0.45;;;;;;;7.81;54.50;102022.22;5026788;28;20037;-62
2021/10/16 02:50:37;;;;;;;3.60;0.30;;;;;;;8.04;53.98;102027.16;5010849;28;21385;-65
2021/10/16 02:53:02;;;;;;;5.55;0.20;;;;;;;7.87;54.40;102027.34;4997499;28;20049;-63
2021/10/16 02:55:28;;;;;;;2.78;0.25;;;;;;;8.01;54.14;102040.22;5013376;28;20075;-62
2021/10/16 02:57:55;;;;;;;2.67;0.10;;;;;;;7.88;54.21;102031.69;5026845;28;20037;-63
2021/10/16 03:00:21;;;;;;;7.03;0.77;;;;;;;7.92;54.37;102030.78;5000870;28;20107;-62
2021/10/16 03:02:47;;;;;;;1.92;0.30;;;;;;;8.02;54.26;102031.53;5011026;28;20199;-64
2021/10/16 03:05:14;;;;;;;1.20;0.30;;;;;;;7.89;54.37;102036.88;5012030;28;20566;-64
2021/10/16 03:07:40;;;;;;;3.10;0.20;;;;;;;7.94;54.46;102029.03;4998943;28;20426;-63
2021/10/16 03:10:06;;;;;;;6.53;0.40;;;;;;;8.17;53.72;102030.50;5008778;28;20037;-62
2021/10/16 03:12:31;;;;;;;1.92;0.30;;;;;;;8.22;54.01;102039.13;5016480;28;20108;-62
2021/10/16 03:15:00;;;;;;;1.40;0.10;;;;;;;8.27;53.74;102038.19;5008255;28;20037;-63
2021/10/16 03:17:26;;;;;;;0.95;0.20;;;;;;;8.17;53.89;102035.72;5012406;28;20041;-62
2021/10/16 03:19:52;;;;;;;0.47;0.10;;;;;;;8.19;53.85;102040.03;5018862;28;20021;-64
2021/10/16 03:22:18;;;;;;;2.55;0.20;;;;;;;8.23;53.96;102039.13;5018153;28;20510;-64
2021/10/16 03:24:44;;;;;;;3.60;0.35;;;;;;;8.14;53.61;102041.81;5020285;28;20040;-67
2021/10/16 03:27:10;;;;;;;2.83;0.20;;;;;;;8.06;53.60;102031.47;5013426;28;20045;-63
2021/10/16 03:29:35;;;;;;;0.90;0.43;;;;;;;8.10;53.94;102034.91;5009695;28;20033;-65
2021/10/16 03:32:02;;;;;;;2.60;0.70;;;;;;;8.22;53.64;102033.91;5011923;28;20473;-66
2021/10/16 03:34:27;;;;;;;3.33;0.20;;;;;;;7.86;54.21;102030.81;5010834;28;20041;-66
2021/10/16 03:36:57;;;;;;;7.25;1.33;;;;;;;8.14;53.68;102036.63;4999024;28;20041;-66
2021/10/16 03:39:23;;;;;;;3.03;0.17;;;;;;;8.24;53.61;102035.63;5008082;28;20037;-64
2021/10/16 03:41:48;;;;;;;2.55;0.25;;;;;;;8.04;53.87;102028.03;5013414;28;20037;-64
2021/10/16 03:44:14;;;;;;;4.15;0.25;;;;;;;8.03;53.51;102028.06;5020387;28;20340;-68
2021/10/16 03:46:41;;;;;;;7.68;0.40;;;;;;;8.12;53.94;102028.81;5011271;28;20096;-64
2021/10/16 03:49:08;;;;;;;1.45;0.22;;;;;;;7.66;54.53;102024.06;5014251;28;20129;-65
2021/10/16 03:51:34;;;;;;;1.70;0.38;;;;;;;7.85;54.13;102032.56;5008895;28;20124;-64
2021/10/16 03:54:01;;;;;;;8.45;0.73;;;;;;;7.79;54.33;102029.16;5013399;28;20599;-63
2021/10/16 03:56:29;;;;;;;5.43;0.70;;;;;;;7.98;54.02;102035.03;5009967;28;20034;-64
2021/10/16 03:58:54;;;;;;;10.27;0.30;;;;;;;8.00;53.53;102028.06;5008436;28;20041;-63
2021/10/16 04:01:20;;;;;;;2.17;0.20;;;;;;;8.03;53.93;102026.31;5013862;28;20403;-63
2021/10/16 04:03:47;;;;;;;4.20;1.15;;;;;;;8.08;53.69;102031.47;5010957;28;20053;-63
2021/10/16 04:06:13;;;;;;;1.75;0.77;;;;;;;7.43;55.13;102028.59;5014852;28;20030;-64
2021/10/16 04:08:39;;;;;;;1.88;0.50;;;;;;;7.87;54.45;102027.34;5012324;28;20573;-63
2021/10/16 04:11:04;;;;;;;3.75;0.22;;;;;;;7.71;54.46;102022.31;5008448;28;20045;-63
2021/10/16 04:13:30;;;;;;;2.80;0.20;;;;;;;7.74;54.47;102030.06;5002172;28;20045;-64
2021/10/16 04:15:56;;;;;;;6.50;0.35;;;;;;;7.99;53.83;102029.81;5010494;28;20508;-63
2021/10/16 04:18:21;;;;;;;6.05;0.50;;;;;;;7.76;54.26;102024.88;5012900;28;20046;-63
2021/10/16 04:20:47;;;;;;;5.93;0.38;;;;;;;7.98;53.98;102024.63;5015911;28;20026;-63
2021/10/16 04:23:13;;;;;;;2.05;0.40;;;;;;;7.78;54.46;102030.03;5009976;28;20037;-63
2021/10/16 04:25:38;;;;;;;3.75;0.35;;;;;;;7.94;54.17;102029.88;5010449;28;20039;-63
2021/10/16 04:28:04;;;;;;;5.47;0.68;;;;;;;7.98;53.71;102028.13;5008960;28;20056;-63
2021/10/16 04:30:40;;;;;;;2.60;0.50;;;;;;;8.06;53.84;102028.00;5018606;28;20764;-63
2021/10/16 04:33:06;;;;;;;6.15;0.30;;;;;;;8.05;54.11;102032.38;5001975;28;20474;-64
2021/10/16 04:35:32;;;;;;;4.70;0.50;;;;;;;8.03;53.90;102030.66;5009415;28;20091;-67
2021/10/16 04:38:00;;;;;;;2.35;0.40;;;;;;;8.15;53.18;102023.56;5001342;28;20042;-64
2021/10/16 04:40:27;;;;;;;3.05;0.40;;;;;;;8.20;53.41;102025.25;5008190;28;20158;-64
2021/10/16 04:42:54;;;;;;;3.38;0.40;;;;;;;8.04;53.73;102020.22;5023858;28;20514;-64
2021/10/16 04:45:21;;;;;;;5.70;0.32;;;;;;;8.01;53.56;102022.00;5012540;28;20061;-64
2021/10/16 04:47:47;;;;;;;5.18;0.75;;;;;;;7.95;54.03;102022.91;5005251;28;20532;-63
2021/10/16 04:50:13;;;;;;;6.70;0.32;;;;;;;8.03;53.99;102018.50;5011142;28;20052;-64
2021/10/16 04:52:43;;;;;;;3.35;0.60;;;;;;;8.04;53.79;102025.41;5025793;28;20450;-63
2021/10/16 04:55:14;;;;;;;9.95;0.40;;;;;;;7.87;54.09;102023.00;5021900;28;20052;-63
2021/10/16 04:57:39;;;;;;;3.90;0.85;;;;;;;7.71;54.65;102022.31;5001755;28;20048;-64
2021/10/16 05:00:06;;;;;;;3.55;0.80;;;;;;;8.07;54.00;102020.19;5016428;28;20046;-64
2021/10/16 05:02:36;;;;;;;8.93;0.43;;;;;;;8.19;53.21;102016.59;5027638;28;20076;-64
2021/10/16 05:05:02;;;;;;;3.45;0.30;;;;;;;7.63;54.50;102013.69;5029292;28;20160;-64
2021/10/16 05:07:30;;;;;;;3.35;0.50;;;;;;;7.89;54.29;102025.59;5013494;28;20034;-64
2021/10/16 05:09:56;;;;;;;1.85;0.50;;;;;;;8.13;53.16;102016.66;5016528;28;20534;-63
2021/10/16 05:12:22;;;;;;;3.90;0.38;;;;;;;7.87;53.68;102027.34;5027066;28;20065;-65
2021/10/16 05:14:47;;;;;;;6.22;1.10;;;;;;;8.13;53.62;102022.72;5011996;28;20540;-65
2021/10/16 05:17:13;;;;;;;2.03;0.40;;;;;;;8.08;53.61;102027.13;5027232;28;20298;-63
2021/10/16 05:19:38;;;;;;;5.50;0.65;;;;;;;7.49;55.02;102025.97;5013312;28;20289;-64
2021/10/16 05:22:04;;;;;;;3.10;0.45;;;;;;;7.45;54.93;102019.91;5011871;28;20068;-64
2021/10/16 05:24:32;;;;;;;6.03;0.95;;;;;;;7.76;53.93;102018.78;5020644;28;20036;-63
2021/10/16 05:26:59;;;;;;;5.80;0.60;;;;;;;7.96;53.87;102019.47;5021666;28;20512;-64
2021/10/16 05:29:25;;;;;;;4.95;0.43;;;;;;;8.03;53.65;102018.50;5015840;28;20493;-64
2021/10/16 05:31:51;;;;;;;3.47;0.40;;;;;;;8.01;53.44;102025.47;5027265;28;20046;-63
2021/10/16 05:34:18;;;;;;;11.10;0.93;;;;;;;7.92;53.72;102026.41;5014452;28;20078;-63
2021/10/16 05:36:43;;;;;;;4.13;0.40;;;;;;;7.82;53.99;102014.38;5015829;28;20029;-63
2021/10/16 05:39:09;;;;;;;12.23;1.38;;;;;;;8.00;53.56;102022.88;5011596;28;20099;-65
2021/10/16 05:41:39;;;;;;;3.22;0.95;;;;;;;8.18;53.00;102029.63;5005021;28;20083;-63
2021/10/16 05:44:05;;;;;;;4.85;1.25;;;;;;;8.28;52.50;102023.44;5013717;28;20113;-64
2021/10/16 05:46:33;;;;;;;2.13;0.65;;;;;;;8.16;52.72;102019.22;5027965;28;20124;-64
2021/10/16 05:49:01;;;;;;;6.40;0.80;;;;;;;8.11;53.01;102019.28;5010308;28;20069;-64
2021/10/16 05:51:27;;;;;;;7.75;1.13;;;;;;;8.23;52.61;102020.88;5012623;28;20108;-64
2021/10/16 05:53:52;;;;;;;5.00;0.55;;;;;;;8.04;52.95;102019.34;5016300;28;20484;-65
2021/10/16 05:56:19;;;;;;;2.75;1.17;;;;;;;8.25;52.47;102019.13;5014616;28;20577;-64
2021/10/16 05:58:44;;;;;;;3.80;0.35;;;;;;;8.33;52.32;102016.41;5013716;28;20183;-64
2021/10/16 06:01:10;;;;;;;1.27;0.30;;;;;;;8.27;52.36;102024.28;5014042;28;20034;-64
2021/10/16 06:03:43;;;;;;;6.53;0.50;;;;;;;8.32;52.00;102014.69;5028361;28;20041;-64
2021/10/16 06:06:09;;;;;;;8.15;0.77;;;;;;;8.23;52.27;102030.44;5014227;28;20162;-64
2021/10/16 06:08:35;;;;;;;4.60;0.30;;;;;;;7.85;53.20;102029.97;5014053;28;20068;-63
2021/10/16 06:11:03;;;;;;;4.05;0.45;;;;;;;8.10;52.71;102030.56;5014128;28;20030;-64
2021/10/16 06:13:29;;;;;;;2.50;0.35;;;;;;;8.09;52.62;102034.06;5028253;28;20055;-65
2021/10/16 06:15:55;;;;;;;3.25;0.77;;;;;;;8.23;52.40;102040.88;5019664;28;20216;-64
2021/10/16 06:18:24;;;;;;;5.13;0.80;;;;;;;8.12;51.94;102034.03;5008984;28;20057;-64
2021/10/16 06:20:50;;;;;;;4.72;0.60;;;;;;;7.99;52.44;102036.78;5015119;28;20052;-63
2021/10/16 06:23:16;;;;;;;6.57;0.77;;;;;;;8.12;52.46;102039.22;5010892;28;20122;-66
2021/10/16 06:25:42;;;;;;;2.97;0.40;;;;;;;8.23;51.97;102041.72;5019947;28;20037;-61
2021/10/16 06:28:13;;;;;;;1.77;0.30;;;;;;;8.33;52.00;102042.47;5025960;28;20099;-65
2021/10/16 06:30:41;;;;;;;5.85;0.50;;;;;;;8.41;51.73;102056.28;5017530;28;20567;-64
2021/10/16 06:33:06;;;;;;;4.45;0.50;;;;;;;8.51;51.70;102047.44;5014826;28;20041;-65
2021/10/16 06:35:32;;;;;;;5.03;0.80;;;;;;;8.48;51.68;102047.50;5002851;28;20079;-65
2021/10/16 06:38:00;;;;;;;1.77;0.50;;;;;;;8.51;51.27;102050.03;5014555;28;20383;-64
2021/10/16 06:40:25;;;;;;;3.75;0.85;;;;;;;8.52;51.03;102063.97;5016949;28;20041;-64
2021/10/16 06:42:58;;;;;;;3.60;0.60;;;;;;;8.49;51.29;102054.41;5015849;28;20048;-64
2021/10/16 06:45:44;;;;;;;3.75;0.50;;;;;;;8.68;51.42;102062.88;4996752;28;20422;-65
2021/10/16 06:48:17;;;;;;;7.28;1.88;;;;;;;8.76;51.09;102065.41;5005267;28;20037;-63
2021/10/16 06:50:56;;;;;;;8.70;0.80;;;;;;;8.85;50.92;102065.28;5014928;28;20407;-64
2021/10/16 06:53:22;;;;;;;3.75;0.40;;;;;;;8.93;50.44;102055.59;5026827;28;20060;-67
2021/10/16 06:55:48;;;;;;;10.50;0.68;;;;;;;8.87;50.38;102060.91;5030393;28;20048;-64
2021/10/16 06:58:13;;;;;;;8.75;0.77;;;;;;;9.04;50.55;102059.81;5014319;28;20034;-65
2021/10/16 07:00:39;;;;;;;4.20;0.50;;;;;;;9.06;50.02;102061.50;5018300;28;20107;-65
2021/10/16 07:03:27;;;;;;;4.82;0.60;;;;;;;9.28;49.78;102059.44;5028859;28;20056;-65
2021/10/16 07:05:53;;;;;;;4.40;0.60;;;;;;;9.42;49.35;102066.19;5031637;28;20041;-63
2021/10/16 07:08:18;;;;;;;5.10;0.22;;;;;;;9.50;49.26;102059.06;5028411;28;20518;-65
2021/10/16 07:10:44;;;;;;;1.85;0.68;;;;;;;9.63;49.35;102071.03;5030383;28;20409;-64
2021/10/16 07:13:10;;;;;;;2.28;0.40;;;;;;;9.74;48.99;102063.88;5030518;28;20119;-64
2021/10/16 07:15:36;;;;;;;3.78;0.40;;;;;;;9.57;48.78;102069.41;5015896;28;20025;-65
2021/10/16 07:18:01;;;;;;;6.03;0.40;;;;;;;9.37;48.80;102074.09;5015448;28;20465;-65
2021/10/16 07:20:27;;;;;;;2.03;0.82;;;;;;;9.88;48.52;102068.03;5031715;28;20029;-65
2021/10/16 07:22:54;;;;;;;3.72;0.40;;;;;;;11.01;46.88;102063.13;5015942;28;20040;-64
2021/10/16 07:25:20;;;;;;;4.95;0.40;;;;;;;12.48;41.77;102065.47;5030457;28;20055;-64
2021/10/16 07:27:46;;;;;;;8.38;0.43;;;;;;;12.62;41.90;102067.69;5018585;28;20335;-64
2021/10/16 07:30:11;;;;;;;1.58;0.40;;;;;;;12.63;41.90;102065.03;5030499;28;20449;-65
2021/10/16 07:32:37;;;;;;;5.05;0.38;;;;;;;12.33;41.57;102081.66;5030819;28;20037;-65
2021/10/16 07:35:02;;;;;;;6.30;0.57;;;;;;;11.97;41.11;102081.75;5031495;28;20893;-64
2021/10/16 07:37:28;;;;;;;3.75;0.30;;;;;;;11.83;42.74;102077.75;5032254;28;20049;-64
2021/10/16 07:39:53;;;;;;;6.63;0.77;;;;;;;12.15;42.29;102081.25;5028070;28;20044;-64
2021/10/16 07:42:19;;;;;;;3.47;0.50;;;;;;;12.00;41.37;102079.03;5030504;28;20050;-65
2021/10/16 07:44:44;;;;;;;2.30;0.60;;;;;;;11.54;42.34;102080.22;5019548;28;20047;-66
2021/10/16 07:47:10;;;;;;;2.95;0.55;;;;;;;10.39;45.43;102081.88;5012687;28;20152;-65
2021/10/16 07:49:35;;;;;;;4.30;0.30;;;;;;;10.58;45.34;102084.09;5030968;28;20299;-64
2021/10/16 07:52:01;;;;;;;6.43;0.30;;;;;;;10.46;45.48;102077.38;5031030;28;20037;-66
2021/10/16 07:54:26;;;;;;;7.70;0.50;;;;;;;10.53;45.23;102084.19;5029024;28;20686;-64
2021/10/16 07:56:52;;;;;;;7.45;2.75;;;;;;;10.46;45.06;102079.13;5029073;28;20033;-66
2021/10/16 07:59:17;;;;;;;11.80;1.33;;;;;;;10.49;45.72;102085.16;5028894;28;20059;-63
2021/10/16 08:01:43;;;;;;;5.20;0.63;;;;;;;10.24;46.22;102087.41;5015077;28;20033;-64
2021/10/16 08:04:09;;;;;;;3.25;0.45;;;;;;;9.95;46.06;102077.50;5012595;28;20038;-64
2021/10/16 08:06:34;;;;;;;4.30;0.50;;;;;;;10.18;46.63;102080.53;5031274;28;20036;-65
2021/10/16 08:09:02;;;;;;;3.47;0.45;;;;;;;10.22;47.35;102083.94;5014822;28;20573;-65
2021/10/16 08:11:50;;;;;;;6.18;1.08;;;;;;;9.94;46.26;102089.66;5013267;28;20045;-64
2021/10/16 08:14:15;;;;;;;5.10;0.45;;;;;;;9.87;46.60;102088.06;5027731;28;20048;-65
2021/10/16 08:16:41;;;;;;;2.95;0.40;;;;;;;9.51;47.32;102090.38;5014776;28;20114;-64
2021/10/16 08:19:07;;;;;;;5.32;0.50;;;;;;;9.75;46.81;102090.88;5023844;28;20116;-65
2021/10/16 08:21:35;;;;;;;7.85;0.60;;;;;;;9.88;46.85;102094.13;5015792;28;20047;-64
2021/10/16 08:24:02;;;;;;;1.45;0.38;;;;;;;10.00;46.64;102093.94;5012918;28;20033;-64
2021/10/16 08:26:27;;;;;;;4.93;0.40;;;;;;;10.12;46.38;102092.84;5011218;28;20796;-64
2021/10/16 08:28:53;;;;;;;3.60;0.60;;;;;;;10.14;46.63;102091.91;5027868;28;20182;-66
2021/10/16 08:31:19;;;;;;;6.97;0.35;;;;;;;9.71;46.66;102097.88;5027222;28;20037;-65
2021/10/16 08:33:44;;;;;;;5.80;0.35;;;;;;;9.95;47.13;102095.78;5029252;28;20139;-64
2021/10/16 08:36:10;;;;;;;8.52;0.82;;;;;;;9.85;46.48;102102.91;5026154;28;20630;-64
2021/10/16 08:38:35;;;;;;;9.25;0.75;;;;;;;9.76;47.43;102106.50;5024827;28;20120;-64
2021/10/16 08:41:01;;;;;;;2.75;0.20;;;;;;;9.63;47.58;102106.72;5011328;28;20567;-65
2021/10/16 08:43:26;;;;;;;6.10;0.73;;;;;;;9.65;47.38;102112.78;5018127;28;20064;-64
2021/10/16 08:45:57;;;;;;;8.13;1.00;;;;;;;9.55;47.63;102112.94;5033590;28;20185;-64
2021/10/16 08:48:23;;;;;;;5.57;0.80;;;;;;;9.24;47.58;102116.91;5029480;28;20625;-63
2021/10/16 08:50:49;;;;;;;2.17;0.50;;;;;;;9.54;47.45;102110.34;5027419;28;20131;-64
2021/10/16 08:53:15;;;;;;;2.75;0.45;;;;;;;9.10;49.27;102109.28;5025845;28;20053;-63
2021/10/16 08:55:42;;;;;;;4.82;0.30;;;;;;;9.38;48.28;102114.94;5028453;28;20033;-64
2021/10/16 08:58:08;;;;;;;4.30;0.57;;;;;;;9.56;47.60;102109.44;5028204;28;20045;-64
2021/10/16 09:00:37;;;;;;;2.25;0.40;;;;;;;9.87;47.12;102110.72;4998142;28;20040;-64
2021/10/16 09:03:16;;;;;;;2.15;0.40;;;;;;;10.02;47.25;102107.84;5027607;28;20048;-65
2021/10/16 09:05:41;;;;;;;6.00;0.57;;;;;;;9.82;47.04;102109.94;5025183;28;20045;-65
2021/10/16 09:08:26;;;;;;;4.78;0.32;;;;;;;9.62;47.64;102118.06;5026429;28;20044;-67
2021/10/16 09:10:52;;;;;;;3.97;0.32;;;;;;;10.05;47.12;102115.59;5026248;28;20250;-66
2021/10/16 09:13:17;;;;;;;4.22;0.43;;;;;;;10.14;46.58;102107.59;5026601;28;20482;-65
2021/10/16 09:15:42;;;;;;;6.13;0.52;;;;;;;9.87;47.61;102115.94;5003172;28;20074;-66
2021/10/16 09:18:08;;;;;;;2.70;0.52;;;;;;;9.75;48.42;102123.06;5013805;28;20053;-64
2021/10/16 09:20:35;;;;;;;5.10;0.98;;;;;;;10.03;47.75;102120.00;5009610;28;20044;-64
2021/10/16 09:23:09;;;;;;;3.15;0.40;;;;;;;10.10;47.37;102113.78;5009145;28;20521;-63
2021/10/16 09:25:35;;;;;;;2.15;0.55;;;;;;;10.09;47.04;102114.66;5024138;28;20099;-65
2021/10/16 09:28:18;;;;;;;1.73;0.30;;;;;;;9.54;48.35;102112.94;5024676;28;20055;-63
2021/10/16 09:30:46;;;;;;;3.50;1.05;;;;;;;10.06;47.84;102113.84;5027725;28;20048;-63
2021/10/16 09:33:12;;;;;;;7.53;0.73;;;;;;;9.76;48.64;102109.09;5025424;28;20033;-64
2021/10/16 09:35:37;;;;;;;7.25;1.25;;;;;;;9.31;49.06;102118.53;5023845;28;20741;-67
2021/10/16 09:38:03;;;;;;;5.07;1.38;;;;;;;10.03;48.11;102112.16;5007312;28;20041;-64
2021/10/16 09:40:39;;;;;;;5.63;0.65;;;;;;;10.00;48.20;102105.25;5017560;28;20453;-63
2021/10/16 09:43:22;;;;;;;4.40;0.93;;;;;;;9.99;47.48;102102.66;5026743;28;20069;-65
2021/10/16 09:46:08;;;;;;;5.65;0.43;;;;;;;9.89;48.09;102109.78;5029761;28;20196;-63
2021/10/16 09:48:36;;;;;;;3.67;0.73;;;;;;;10.19;47.07;102111.00;5024807;28;20066;-65
2021/10/16 09:51:02;;;;;;;8.25;1.50;;;;;;;10.28;46.27;102109.09;5026649;28;20097;-64
2021/10/16 09:53:28;;;;;;;5.57;1.80;;;;;;;9.99;46.58;102118.31;5025518;28;20461;-64
2021/10/16 09:55:54;;;;;;;7.25;0.70;;;;;;;10.13;47.30;102112.88;5027739;28;20038;-63
2021/10/16 09:58:23;;;;;;;2.30;1.05;;;;;;;9.67;46.90;102122.31;5015171;28;20047;-67
2021/10/16 10:00:52;;;;;;;1.95;0.70;;;;;;;9.61;47.83;102122.44;5027039;28;20037;-63
2021/10/16 10:03:24;;;;;;;4.20;0.82;;;;;;;9.71;48.18;102128.34;5021540;28;20045;-63
2021/10/16 10:05:51;;;;;;;2.47;0.80;;;;;;;9.46;48.40;102128.75;5014049;28;20470;-65
2021/10/16 10:08:20;;;;;;;2.58;0.50;;;;;;;10.05;46.76;102118.22;5025430;28;20041;-64
2021/10/16 10:10:48;;;;;;;3.90;0.70;;;;;;;10.08;46.93;102126.00;5023598;28;20060;-63
2021/10/16 10:13:17;;;;;;;2.72;0.50;;;;;;;10.24;45.66;102128.34;5008147;28;20045;-64
2021/10/16 10:15:43;;;;;;;3.25;0.40;;;;;;;9.84;46.24;102131.66;5007774;28;20037;-66
2021/10/16 10:20:56;;;;;;;3.95;0.52;;;;;;;9.92;46.44;102135.00;5025962;28;20041;-66
2021/10/16 10:23:24;;;;;;;4.10;0.50;;;;;;;9.75;46.49;102130.88;5025960;28;20049;-66
2021/10/16 10:26:24;;;;;;;2.67;0.40;;;;;;;10.19;46.29;102141.47;5025755;28;20045;-65
2021/10/16 10:29:06;;;;;;;1.20;0.40;;;;;;;10.19;45.68;102136.25;5015344;28;20510;-65
2021/10/16 10:32:00;;;;;;;2.65;0.30;;;;;;;9.95;46.14;102137.56;5024302;28;20061;-65
2021/10/16 10:34:34;;;;;;;1.65;0.40;;;;;;;10.04;46.18;102137.41;5009181;28;20038;-64
2021/10/16 10:37:01;;;;;;;4.13;0.28;;;;;;;9.85;46.69;102130.75;5010140;28;20040;-65
2021/10/16 10:39:33;;;;;;;1.63;0.45;;;;;;;9.94;46.31;102135.81;5030871;28;20033;-66
2021/10/16 10:42:13;;;;;;;4.22;0.80;;;;;;;10.27;45.73;102138.75;5029171;28;20122;-64
2021/10/16 10:44:47;;;;;;;5.95;0.50;;;;;;;9.94;46.29;102141.06;5032809;28;20036;-64
2021/10/16 10:47:22;;;;;;;2.38;0.70;;;;;;;9.97;45.89;102135.78;5029346;28;20041;-66
2021/10/16 10:49:48;;;;;;;4.40;0.80;;;;;;;10.42;45.77;102130.59;5031416;28;20037;-64
2021/10/16 10:52:16;;;;;;;8.05;0.60;;;;;;;10.60;45.52;102138.09;5015700;28;20493;-66
2021/10/16 10:55:06;;;;;;;6.13;0.80;;;;;;;10.40;45.60;102130.63;5029895;28;20144;-66
2021/10/16 10:57:44;;;;;;;5.53;0.60;;;;;;;10.66;45.45;102133.63;5011700;28;20048;-63
2021/10/16 11:00:14;;;;;;;5.10;0.95;;;;;;;10.12;45.66;102119.81;5029580;28;20486;-64
2021/10/16 11:02:40;;;;;;;5.22;0.52;;;;;;;10.27;45.60;102130.91;5028703;28;20524;-64
2021/10/16 11:05:23;;;;;;;4.70;0.95;;;;;;;10.66;44.41;102131.00;5028177;28;20187;-64
2021/10/16 11:07:49;;;;;;;4.72;1.08;;;;;;;10.32;45.24;102123.81;5015286;28;20041;-64
2021/10/16 11:10:15;;;;;;;11.55;0.95;;;;;;;10.11;46.22;102128.56;5028545;28;20386;-64
2021/10/16 11:12:43;;;;;;;3.13;0.50;;;;;;;10.29;45.70;102116.91;5026804;28;20498;-63
2021/10/16 11:15:11;;;;;;;7.20;1.23;;;;;;;10.68;45.86;102118.75;5029820;28;20041;-64
2021/10/16 11:17:42;;;;;;;5.47;0.52;;;;;;;10.63;46.02;102118.84;5029969;28;20462;-65
2021/10/16 11:20:25;;;;;;;6.53;0.70;;;;;;;10.69;44.72;102118.72;5031710;28;20296;-64
2021/10/16 11:22:53;;;;;;;6.35;0.90;;;;;;;10.19;46.23;102115.34;5029821;28;20060;-64
2021/10/16 11:25:23;;;;;;;7.13;0.88;;;;;;;10.08;47.35;102117.28;5032320;28;20033;-65
2021/10/16 11:28:03;;;;;;;5.47;0.85;;;;;;;10.06;46.92;102114.72;5018953;28;20142;-64
2021/10/16 11:30:29;;;;;;;4.22;0.90;;;;;;;10.39;46.26;102104.50;5028989;28;20186;-65
2021/10/16 11:33:03;;;;;;;5.78;0.82;;;;;;;10.50;46.18;102109.53;5031568;28;20134;-65
2021/10/16 11:35:30;;;;;;;4.35;0.73;;;;;;;10.70;45.35;102099.53;5031379;28;20044;-64
2021/10/16 11:37:56;;;;;;;4.45;0.55;;;;;;;10.81;44.94;102099.31;5031066;28;20163;-65